Time;durP1;ratioP1;P1;durP2;ratioP2;P2;SDS_P1;SDS_P2;PMS_P1;PMS_P2;Temp;Humidity;BMP_temperature;BMP_pressure;BME280_temperature;BME280_humidity;BME280_pressure;Samples;Min_cycle;Max_cycle;Signal;HPM_P1;HPM_P2
2023/01/30 00:08:56;;;;;;;21.8;12.6;;;;;;;-1.7;79;98890;;;;
2023/01/30 00:19:56;;;;;;;21.8;12.6;;;;;;;-1.6;79.2;98850;;;;
2023/01/30 00:29:56;;;;;;;23.3;14.1;;;;;;;-1.5;79.3;98820;;;;
2023/01/30 00:40:56;;;;;;;23.3;14.1;;;;;;;-1.4;79;98800;;;;
2023/01/30 00:51:56;;;;;;;23.3;14.1;;;;;;;-1.4;78.8;98760;;;;
2023/01/30 01:01:56;;;;;;;24.8;14.1;;;;;;;-1.4;79;98740;;;;
2023/01/30 01:11:56;;;;;;;24.8;14.1;;;;;;;-1.3;79;98720;;;;
2023/01/30 01:22:56;;;;;;;24.8;14.1;;;;;;;-1.5;78.8;98700;;;;
2023/01/30 01:33:56;;;;;;;24.5;14.8;;;;;;;-1.9;78.5;98680;;;;
2023/01/30 01:44:56;;;;;;;24.5;14.8;;;;;;;-2.3;78.2;98650;;;;
2023/01/30 01:54:56;;;;;;;24.2;15.1;;;;;;;-2.7;78.5;98640;;;;
2023/01/30 02:05:05;;;;;;;24.2;15.1;;;;;;;-3;78.7;98620;;;;
2023/01/30 02:14:56;;;;;;;24.2;15.1;;;;;;;-3.3;79.1;98600;;;;
2023/01/30 02:25:56;;;;;;;24.6;16.4;;;;;;;-3.5;81.7;98600;;;;
2023/01/30 02:36:56;;;;;;;24.6;16.4;;;;;;;-3.6;83.6;98600;;;;
2023/01/30 02:47:56;;;;;;;24.6;16.4;;;;;;;-3.6;84.7;98570;;;;
2023/01/30 02:57:56;;;;;;;32.3;13.8;;;;;;;-3.5;84.9;98560;;;;
2023/01/30 03:07:56;;;;;;;32.3;13.8;;;;;;;-3.4;84.6;98540;;;;
2023/01/30 03:18:56;;;;;;;32.3;13.8;;;;;;;-3.3;83.8;98520;;;;
2023/01/30 03:29:56;;;;;;;24.6;13.9;;;;;;;-3.1;83.6;98500;;;;
2023/01/30 03:39:57;;;;;;;24.6;13.9;;;;;;;-3;83.5;98510;;;;
2023/01/30 03:50:56;;;;;;;24.6;13.9;;;;;;;-3;83.3;98480;;;;
2023/01/30 04:01:56;;;;;;;20.7;12.6;;;;;;;-3.1;83.2;98470;;;;
2023/01/30 04:11:56;;;;;;;20.7;12.6;;;;;;;-3;83.2;98460;;;;
2023/01/30 04:21:56;;;;;;;20.7;12.6;;;;;;;-3.1;83;98450;;;;
2023/01/30 04:32:56;;;;;;;23.9;13.3;;;;;;;-3.2;83.2;98440;;;;
2023/01/30 04:43:56;;;;;;;23.9;13.3;;;;;;;-3.2;83.2;98420;;;;
2023/01/30 04:54:56;;;;;;;17.7;9.9;;;;;;;-3.1;83.3;98410;;;;
2023/01/30 05:05:56;;;;;;;17.7;9.9;;;;;;;-3;82.5;98400;;;;
2023/01/30 05:16:56;;;;;;;17.7;9.9;;;;;;;-2.9;81.4;98410;;;;
2023/01/30 05:26:56;;;;;;;24.9;12.4;;;;;;;-2.8;81;98400;;;;
2023/01/30 05:37:56;;;;;;;24.9;12.4;;;;;;;-2.7;80.5;98360;;;;
2023/01/30 05:47:56;;;;;;;24.9;12.4;;;;;;;-2.6;79.6;98340;;;;
2023/01/30 05:58:56;;;;;;;21;10.1;;;;;;;-2.6;78.8;98340;;;;
2023/01/30 06:08:56;;;;;;;21;10.1;;;;;;;-2.5;78.3;98310;;;;
2023/01/30 06:19:56;;;;;;;21;10.1;;;;;;;-2.4;76.9;98300;;;;
2023/01/30 06:29:56;;;;;;;17.5;9.4;;;;;;;-2.3;75.7;98260;;;;
2023/01/30 06:40:56;;;;;;;17.5;9.4;;;;;;;-2.2;75;98230;;;;
2023/01/30 06:51:56;;;;;;;17.5;9.4;;;;;;;-2;74.2;98220;;;;
2023/01/30 07:01:56;;;;;;;14;8.3;;;;;;;-1.8;73.7;98220;;;;
2023/01/30 07:11:56;;;;;;;14;8.3;;;;;;;-1.7;72.2;98200;;;;
2023/01/30 07:22:56;;;;;;;17.5;9.1;;;;;;;-1.4;70.8;98150;;;;
2023/01/30 07:33:56;;;;;;;17.5;9.1;;;;;;;-1.1;70.1;98180;;;;
2023/01/30 07:43:56;;;;;;;17.5;9.1;;;;;;;-0.9;69.9;98190;;;;
2023/01/30 07:54:56;;;;;;;14.2;8.1;;;;;;;-0.6;69.7;98190;;;;
2023/01/30 08:04:56;;;;;;;14.2;8.1;;;;;;;-0.3;70;98170;;;;
2023/01/30 08:15:56;;;;;;;14.2;8.1;;;;;;;0;69.4;98160;;;;
2023/01/30 08:25:56;;;;;;;12.1;7.6;;;;;;;0.1;68.3;98150;;;;
2023/01/30 08:35:56;;;;;;;12.1;7.6;;;;;;;0.3;68.2;98120;;;;
2023/01/30 08:46:56;;;;;;;12.1;7.6;;;;;;;0.4;68.6;98100;;;;
2023/01/30 08:56:56;;;;;;;15.1;9.2;;;;;;;0.7;68.8;98110;;;;
2023/01/30 09:06:56;;;;;;;15.1;9.2;;;;;;;1.2;68;98080;;;;
2023/01/30 09:17:56;;;;;;;15.1;9.2;;;;;;;1.5;67.7;98070;;;;
2023/01/30 09:27:56;;;;;;;16.9;9.7;;;;;;;1.3;67.8;98070;;;;
2023/01/30 09:37:57;;;;;;;16.9;9.7;;;;;;;1.7;67.8;98050;;;;
2023/01/30 09:48:56;;;;;;;16.9;9.7;;;;;;;1.9;67.8;98020;;;;
2023/01/30 09:59:56;;;;;;;12.3;7.4;;;;;;;1.7;67.9;98020;;;;
2023/01/30 10:09:56;;;;;;;12.3;7.4;;;;;;;1.8;69.2;98000;;;;
2023/01/30 10:19:56;;;;;;;12.3;7.4;;;;;;;1.5;69.1;97980;;;;
2023/01/30 10:30:56;;;;;;;11.8;6.7;;;;;;;1.6;69.8;97950;;;;
2023/01/30 10:40:56;;;;;;;11.8;6.7;;;;;;;1.8;69.8;97930;;;;
2023/01/30 10:50:56;;;;;;;11.8;6.7;;;;;;;2;69.5;97910;;;;
2023/01/30 11:01:56;;;;;;;11.1;6.5;;;;;;;1.8;71.4;97910;;;;
2023/01/30 11:12:56;;;;;;;11.1;6.5;;;;;;;1.8;72.3;97900;;;;
2023/01/30 11:22:56;;;;;;;11.5;6.8;;;;;;;1.7;73;97890;;;;
2023/01/30 11:33:56;;;;;;;11.5;6.8;;;;;;;1.9;72.7;97880;;;;
2023/01/30 11:43:56;;;;;;;11.5;6.8;;;;;;;2;73.1;97860;;;;
2023/01/30 11:53:56;;;;;;;12.3;6.8;;;;;;;2.1;73.8;97850;;;;
2023/01/30 12:03:56;;;;;;;12.3;6.8;;;;;;;1.7;76.1;97840;;;;
2023/01/30 12:14:56;;;;;;;12.3;6.8;;;;;;;1.7;77.8;97810;;;;
2023/01/30 12:24:57;;;;;;;13.6;8.2;;;;;;;1.8;77.7;97810;;;;
2023/01/30 12:34:56;;;;;;;13.6;8.2;;;;;;;1.7;78.3;97800;;;;
2023/01/30 12:45:56;;;;;;;13.6;8.2;;;;;;;1.7;79.3;97790;;;;
2023/01/30 12:56:56;;;;;;;13.8;8.3;;;;;;;1.7;79.4;97780;;;;
2023/01/30 13:07:56;;;;;;;13.8;8.3;;;;;;;2;79.5;97780;;;;
2023/01/30 13:17:56;;;;;;;13.8;8.3;;;;;;;2;79.6;97770;;;;
2023/01/30 13:27:56;;;;;;;13.9;8.7;;;;;;;1.7;80.4;97770;;;;
2023/01/30 13:37:56;;;;;;;13.9;8.7;;;;;;;1.7;81.2;97760;;;;
2023/01/30 13:47:56;;;;;;;13.9;8.7;;;;;;;1.7;81;97760;;;;
2023/01/30 13:57:56;;;;;;;15.8;7.9;;;;;;;1.5;81.2;97750;;;;
2023/01/30 14:07:56;;;;;;;15.8;7.9;;;;;;;1.7;80.5;97760;;;;
2023/01/30 14:17:56;;;;;;;15.8;7.9;;;;;;;1.7;80.2;97750;;;;
2023/01/30 14:27:56;;;;;;;12.9;8.2;;;;;;;1.6;80.6;97740;;;;
2023/01/30 14:37:56;;;;;;;12.9;8.2;;;;;;;1.6;80.2;97740;;;;
2023/01/30 14:48:56;;;;;;;12.9;8.2;;;;;;;1.5;79.9;97750;;;;
2023/01/30 14:58:56;;;;;;;12.7;8;;;;;;;1.6;79.6;97740;;;;
2023/01/30 15:08:56;;;;;;;12.7;8;;;;;;;1.6;79.4;97740;;;;
2023/01/30 15:19:56;;;;;;;12.7;8;;;;;;;1.7;78.6;97740;;;;
2023/01/30 15:29:56;;;;;;;15.3;9.2;;;;;;;1.7;78.7;97760;;;;
2023/01/30 15:40:56;;;;;;;15.3;9.2;;;;;;;1.7;79.1;97760;;;;
2023/01/30 15:50:56;;;;;;;14.4;8.5;;;;;;;1.7;79.8;97770;;;;
2023/01/30 16:01:56;;;;;;;14.4;8.5;;;;;;;1.8;79.2;97790;;;;
2023/01/30 16:11:56;;;;;;;14.4;8.5;;;;;;;1.7;80.5;97790;;;;
2023/01/30 16:21:56;;;;;;;14.5;8.8;;;;;;;1.8;80.3;97800;;;;
2023/01/30 16:31:56;;;;;;;14.5;8.8;;;;;;;1.8;80.4;97820;;;;
2023/01/30 16:41:56;;;;;;;14.5;8.8;;;;;;;1.9;81;97830;;;;
2023/01/30 16:51:56;;;;;;;12.3;7.2;;;;;;;2.1;80.8;97830;;;;
2023/01/30 17:01:57;;;;;;;12.3;7.2;;;;;;;2.4;80;97830;;;;
2023/01/30 17:12:56;;;;;;;12.3;7.2;;;;;;;2.5;78.8;97820;;;;
2023/01/30 17:23:56;;;;;;;12.2;5.9;;;;;;;2.6;78.3;97820;;;;
2023/01/30 17:33:56;;;;;;;12.2;5.9;;;;;;;2.7;77.8;97810;;;;
2023/01/30 17:43:56;;;;;;;12.2;5.9;;;;;;;2.7;77.2;97800;;;;
2023/01/30 17:54:56;;;;;;;11.9;5.7;;;;;;;2.8;77;97800;;;;
2023/01/30 18:05:56;;;;;;;11.9;5.7;;;;;;;2.8;76.6;97790;;;;
2023/01/30 18:15:56;;;;;;;11.9;5.7;;;;;;;2.9;76;97790;;;;
2023/01/30 18:26:56;;;;;;;7;4.6;;;;;;;3;75.7;97790;;;;
2023/01/30 18:36:56;;;;;;;7;4.6;;;;;;;3;75.9;97800;;;;
2023/01/30 18:46:56;;;;;;;7;4.6;;;;;;;3;76.2;97810;;;;
2023/01/30 18:57:56;;;;;;;6.5;4.5;;;;;;;2.9;76.9;97800;;;;
2023/01/30 19:08:56;;;;;;;6.5;4.5;;;;;;;2.9;77.1;97780;;;;
2023/01/30 19:18:55;;;;;;;6.5;4.5;;;;;;;3;76.9;97780;;;;
2023/01/30 19:28:56;;;;;;;8.5;4.8;;;;;;;3;76.8;97790;;;;
2023/01/30 19:38:56;;;;;;;8.5;4.8;;;;;;;3;76.2;97800;;;;
2023/01/30 19:49:57;;;;;;;10.1;6.3;;;;;;;3.1;76.3;97800;;;;
2023/01/30 20:00:56;;;;;;;10.1;6.3;;;;;;;3.1;76;97800;;;;
2023/01/30 20:10:55;;;;;;;10.1;6.3;;;;;;;3.1;76.6;97800;;;;
2023/01/30 20:20:56;;;;;;;16.2;8.6;;;;;;;3.1;77.9;97810;;;;
2023/01/30 20:31:56;;;;;;;16.2;8.6;;;;;;;3.1;78.7;97820;;;;
2023/01/30 20:42:56;;;;;;;16.2;8.6;;;;;;;3.1;78.4;97820;;;;
2023/01/30 20:52:55;;;;;;;7.2;4.6;;;;;;;3.1;78.5;97830;;;;
2023/01/30 21:02:55;;;;;;;7.2;4.6;;;;;;;3;80.6;97850;;;;
2023/01/30 21:12:55;;;;;;;7.2;4.6;;;;;;;3;81.7;97860;;;;
2023/01/30 21:22:56;;;;;;;9.6;4.2;;;;;;;2.8;82.8;97870;;;;
2023/01/30 21:33:56;;;;;;;9.6;4.2;;;;;;;2.8;83.4;97880;;;;
2023/01/30 21:44:55;;;;;;;9.6;4.2;;;;;;;2.6;85.1;97890;;;;
2023/01/30 21:55:55;;;;;;;11.4;6.1;;;;;;;2.5;85.3;97900;;;;
2023/01/30 22:06:55;;;;;;;11.4;6.1;;;;;;;2.5;85.5;97920;;;;
2023/01/30 22:16:55;;;;;;;11.4;6.1;;;;;;;2.4;86.1;97950;;;;
2023/01/30 22:26:56;;;;;;;11;5.8;;;;;;;2.3;86.8;97960;;;;
2023/01/30 22:37:55;;;;;;;11;5.8;;;;;;;2.3;86.8;97960;;;;
2023/01/30 22:47:55;;;;;;;11;5.8;;;;;;;2.3;86.4;97960;;;;
2023/01/30 22:57:55;;;;;;;12.8;6.5;;;;;;;2.3;85.7;97950;;;;
2023/01/30 23:07:55;;;;;;;12.8;6.5;;;;;;;2.5;84.9;97960;;;;
2023/01/30 23:18:57;;;;;;;12.8;6.5;;;;;;;2.4;83.8;97960;;;;
2023/01/30 23:28:55;;;;;;;8.7;4.6;;;;;;;2.3;83.7;97970;;;;
2023/01/30 23:38:55;;;;;;;8.7;4.6;;;;;;;2.4;83;97980;;;;
2023/01/30 23:48:55;;;;;;;8.7;4.6;;;;;;;2.3;86.2;97990;;;;
2023/01/30 23:58:55;;;;;;;8.5;4.9;;;;;;;1.9;88.4;98010;;;;
